createdAt,value
2018-11-05T00:01:12.101Z,13.70
2018-11-05T00:03:40.784Z,13.23
2018-11-05T00:06:09.080Z,12.47
2018-11-05T00:08:37.364Z,13.93
2018-11-05T00:11:06.728Z,13.93
2018-11-05T00:13:35.057Z,12.23
2018-11-05T00:16:03.505Z,12.90
2018-11-05T00:18:31.825Z,16.20
2018-11-05T00:21:00.187Z,14.03
2018-11-05T00:23:28.558Z,14.17
2018-11-05T00:25:56.934Z,14.43
2018-11-05T00:28:25.218Z,14.67
2018-11-05T00:30:53.576Z,13.63
2018-11-05T00:33:21.850Z,14.90
2018-11-05T00:35:50.160Z,14.70
2018-11-05T00:38:18.500Z,13.70
2018-11-05T00:40:46.784Z,16.17
2018-11-05T00:43:15.165Z,16.00
2018-11-05T00:45:43.577Z,16.77
2018-11-05T00:48:12.916Z,16.43
2018-11-05T00:50:41.238Z,14.23
2018-11-05T00:53:09.493Z,16.50
2018-11-05T00:55:38.043Z,14.50
2018-11-05T00:58:06.613Z,14.63
2018-11-05T01:00:34.961Z,14.43
2018-11-05T01:03:03.205Z,16.67
2018-11-05T01:05:31.494Z,15.37
2018-11-05T01:07:59.756Z,17.10
2018-11-05T01:10:28.059Z,17.87
2018-11-05T01:12:56.330Z,17.43
2018-11-05T01:15:24.619Z,16.90
2018-11-05T01:17:52.874Z,16.10
2018-11-05T01:20:21.164Z,17.90
2018-11-05T01:22:49.459Z,18.73
2018-11-05T01:25:17.857Z,18.07
2018-11-05T01:27:46.195Z,18.53
2018-11-05T01:30:14.490Z,17.43
2018-11-05T01:32:42.729Z,16.20
2018-11-05T01:35:12.312Z,15.07
2018-11-05T01:37:40.695Z,17.67
2018-11-05T01:40:11.223Z,18.13
2018-11-05T01:42:39.533Z,16.43
2018-11-05T01:45:09.373Z,14.03
2018-11-05T01:47:37.811Z,15.83
2018-11-05T01:50:07.430Z,15.63
2018-11-05T01:52:35.720Z,14.43
2018-11-05T01:55:06.013Z,16.97
2018-11-05T01:57:35.474Z,16.53
2018-11-05T02:00:05.221Z,16.10
2018-11-05T02:02:33.543Z,15.87
2018-11-05T02:05:01.880Z,13.33
2018-11-05T02:07:30.204Z,16.60
2018-11-05T02:09:58.648Z,17.07
2018-11-05T02:12:27.016Z,15.30
2018-11-05T02:14:55.423Z,17.83
2018-11-05T02:17:23.734Z,17.97
2018-11-05T02:19:52.172Z,19.33
2018-11-05T02:22:20.468Z,18.60
2018-11-05T02:24:48.740Z,14.50
2018-11-05T02:27:17.087Z,15.37
2018-11-05T02:29:45.295Z,16.63
2018-11-05T02:32:13.580Z,18.07
2018-11-05T02:34:41.843Z,16.57
2018-11-05T02:37:10.138Z,15.43
2018-11-05T02:39:38.393Z,15.87
2018-11-05T02:42:06.694Z,16.33
2018-11-05T02:44:34.985Z,16.63
2018-11-05T02:47:03.371Z,15.97
2018-11-05T02:49:31.709Z,15.50
2018-11-05T02:52:00.025Z,16.77
2018-11-05T02:54:28.375Z,19.10
2018-11-05T02:56:56.657Z,17.00
2018-11-05T02:59:24.925Z,15.97
2018-11-05T03:01:53.199Z,18.10
2018-11-05T03:04:21.487Z,16.80
2018-11-05T03:06:49.771Z,15.73
2018-11-05T03:09:18.139Z,17.37
2018-11-05T03:11:46.425Z,17.13
2018-11-05T03:14:14.675Z,16.97
2018-11-05T03:16:43.013Z,17.33
2018-11-05T03:19:11.332Z,18.80
2018-11-05T03:21:39.599Z,16.37
2018-11-05T03:24:07.894Z,14.30
2018-11-05T03:26:36.201Z,16.77
2018-11-05T03:29:04.540Z,16.30
2018-11-05T03:31:32.863Z,16.53
2018-11-05T03:34:01.193Z,17.07
2018-11-05T03:36:29.529Z,15.83
2018-11-05T03:38:57.880Z,14.20
2018-11-05T03:41:26.302Z,13.10
2018-11-05T03:43:55.721Z,18.00
2018-11-05T03:46:24.060Z,16.33
2018-11-05T03:48:52.429Z,15.20
2018-11-05T03:51:20.801Z,15.30
2018-11-05T03:53:49.187Z,14.17
2018-11-05T03:56:17.735Z,12.10
2018-11-05T03:58:45.928Z,10.90
2018-11-05T04:01:14.217Z,14.70
2018-11-05T04:03:42.568Z,14.10
2018-11-05T04:06:10.921Z,12.50
2018-11-05T04:08:39.249Z,12.97
2018-11-05T04:11:07.599Z,16.00
2018-11-05T04:13:35.884Z,15.93
2018-11-05T04:16:04.388Z,14.20
2018-11-05T04:18:32.620Z,14.33
2018-11-05T04:21:00.948Z,15.73
2018-11-05T04:23:29.853Z,15.60
2018-11-05T04:25:58.160Z,14.47
2018-11-05T04:28:26.566Z,14.10
2018-11-05T04:30:54.983Z,11.80
2018-11-05T04:33:23.333Z,15.80
2018-11-05T04:35:51.726Z,13.67
2018-11-05T04:38:20.077Z,14.17
2018-11-05T04:40:48.470Z,14.67
2018-11-05T04:43:16.889Z,14.13
2018-11-05T04:45:45.231Z,13.20
2018-11-05T04:48:13.622Z,11.83
2018-11-05T04:50:42.016Z,14.27
2018-11-05T04:53:10.391Z,14.50
2018-11-05T04:55:38.728Z,13.67
2018-11-05T04:58:07.130Z,15.07
2018-11-05T05:00:35.485Z,14.13
2018-11-05T05:03:03.925Z,13.37
2018-11-05T05:05:32.266Z,11.83
2018-11-05T05:08:00.623Z,11.77
2018-11-05T05:10:28.906Z,15.87
2018-11-05T05:12:57.290Z,11.97
2018-11-05T05:15:25.681Z,11.77
2018-11-05T05:17:54.067Z,12.20
2018-11-05T05:20:22.460Z,13.00
2018-11-05T05:22:50.962Z,13.20
2018-11-05T05:25:19.210Z,11.23
2018-11-05T05:27:47.606Z,11.70
2018-11-05T05:30:17.221Z,12.03
2018-11-05T05:32:46.517Z,11.77
2018-11-05T05:35:15.153Z,12.33
2018-11-05T05:37:43.558Z,11.60
2018-11-05T05:40:12.937Z,13.47
2018-11-05T05:42:48.279Z,13.70
2018-11-05T05:45:16.701Z,16.20
2018-11-05T05:47:45.800Z,15.40
2018-11-05T05:50:17.946Z,12.50
2018-11-05T05:52:47.546Z,14.53
2018-11-05T05:55:15.928Z,15.03
2018-11-05T05:57:44.725Z,16.60
2018-11-05T06:00:15.251Z,15.87
2018-11-05T06:02:43.635Z,14.87
2018-11-05T06:05:12.909Z,15.03
2018-11-05T06:07:41.738Z,13.10
2018-11-05T06:10:11.520Z,13.77
2018-11-05T06:12:40.000Z,14.80
2018-11-05T06:15:12.289Z,17.30
2018-11-05T06:17:40.626Z,14.20
2018-11-05T06:20:13.833Z,14.90
2018-11-05T06:22:42.847Z,14.83
2018-11-05T06:25:11.210Z,14.77
2018-11-05T06:27:39.598Z,12.83
2018-11-05T06:30:10.361Z,15.87
2018-11-05T06:32:40.089Z,14.17
2018-11-05T06:35:09.488Z,15.73
2018-11-05T06:37:38.060Z,13.93
2018-11-05T06:40:07.613Z,13.60
2018-11-05T06:42:36.002Z,11.60
2018-11-05T06:45:05.023Z,12.93
2018-11-05T06:47:33.310Z,13.40
2018-11-05T06:50:01.660Z,14.00
2018-11-05T06:52:30.037Z,14.80
2018-11-05T06:54:58.424Z,12.33
2018-11-05T06:57:26.928Z,13.07
2018-11-05T06:59:55.200Z,14.67
2018-11-05T07:02:23.642Z,14.67
2018-11-05T07:04:54.994Z,14.13
2018-11-05T07:07:23.525Z,17.00
2018-11-05T07:09:51.913Z,14.03
2018-11-05T07:12:20.221Z,15.20
2018-11-05T07:14:48.522Z,13.67
2018-11-05T07:17:16.893Z,13.53
2018-11-05T07:19:45.316Z,12.13
2018-11-05T07:22:13.657Z,14.20
2018-11-05T07:24:42.037Z,13.83
2018-11-05T07:27:10.422Z,13.90
2018-11-05T07:29:38.803Z,13.17
2018-11-05T07:32:07.165Z,13.50
2018-11-05T07:34:35.609Z,12.30
2018-11-05T07:37:03.951Z,12.40
2018-11-05T07:39:32.332Z,11.47
2018-11-05T07:42:00.696Z,11.30
2018-11-05T07:44:29.084Z,13.47
2018-11-05T07:46:57.455Z,13.40
2018-11-05T07:49:25.877Z,13.10
2018-11-05T07:51:54.243Z,14.00
2018-11-05T07:54:22.592Z,13.13
2018-11-05T07:56:51.037Z,14.40
2018-11-05T07:59:19.340Z,15.40
2018-11-05T08:01:47.716Z,14.80
2018-11-05T08:04:16.114Z,16.07
2018-11-05T08:06:45.505Z,13.60
2018-11-05T08:09:13.941Z,14.50
2018-11-05T08:14:26.860Z,15.17
2018-11-05T08:16:55.169Z,14.47
2018-11-05T08:19:23.554Z,12.90
2018-11-05T08:21:51.898Z,14.07
2018-11-05T08:24:20.263Z,15.47
2018-11-05T08:26:48.616Z,13.30
2018-11-05T08:29:17.032Z,13.70
2018-11-05T08:31:45.351Z,13.47
2018-11-05T08:34:14.245Z,14.87
2018-11-05T08:36:42.656Z,14.20
2018-11-05T08:39:12.074Z,12.60
2018-11-05T08:41:40.860Z,13.57
2018-11-05T08:44:11.173Z,13.43
2018-11-05T08:46:40.433Z,12.93
2018-11-05T08:49:09.662Z,12.30
2018-11-05T08:51:38.358Z,12.03
2018-11-05T08:54:06.501Z,10.73
2018-11-05T08:59:09.525Z,11.27
2018-11-05T09:01:39.157Z,11.07
2018-11-05T09:04:07.523Z,12.47
2018-11-05T09:06:35.892Z,13.67
2018-11-05T09:09:06.092Z,11.67
2018-11-05T09:11:34.751Z,9.43
2018-11-05T09:14:02.979Z,11.80
2018-11-05T09:16:31.375Z,10.50
2018-11-05T09:18:59.716Z,11.47
2018-11-05T09:21:28.119Z,11.13
2018-11-05T09:23:56.525Z,10.90
2018-11-05T09:26:24.889Z,11.70
2018-11-05T09:28:53.238Z,10.60
2018-11-05T09:31:21.658Z,8.90
2018-11-05T09:33:50.068Z,10.33
2018-11-05T09:36:18.392Z,11.27
2018-11-05T09:38:46.778Z,11.93
2018-11-05T09:41:15.141Z,10.13
2018-11-05T09:43:43.501Z,12.20
2018-11-05T09:46:11.930Z,12.03
2018-11-05T09:48:40.527Z,9.80
2018-11-05T09:51:08.849Z,9.67
2018-11-05T09:53:37.212Z,9.47
2018-11-05T09:56:05.619Z,10.10
2018-11-05T09:58:34.030Z,9.40
2018-11-05T10:01:02.483Z,8.17
2018-11-05T10:03:31.247Z,9.97
2018-11-05T10:05:59.305Z,8.77
2018-11-05T10:08:27.736Z,10.47
2018-11-05T10:10:56.225Z,9.83
2018-11-05T10:13:24.672Z,9.83
2018-11-05T10:15:53.090Z,8.70
2018-11-05T10:18:21.614Z,8.83
2018-11-05T10:20:49.956Z,7.90
2018-11-05T10:23:18.434Z,10.87
2018-11-05T10:25:46.809Z,9.27
2018-11-05T10:28:16.263Z,9.13
2018-11-05T10:30:44.606Z,8.77
2018-11-05T10:33:13.085Z,9.10
2018-11-05T10:35:57.457Z,9.13
2018-11-05T10:38:26.357Z,8.60
2018-11-05T10:40:59.142Z,8.43
2018-11-05T10:43:27.516Z,9.60
2018-11-05T10:45:56.948Z,8.77
2018-11-05T10:48:25.372Z,8.47
2018-11-05T10:50:53.835Z,7.50
2018-11-05T10:53:22.239Z,8.10
2018-11-05T10:55:50.629Z,7.83
2018-11-05T10:58:19.044Z,8.53
2018-11-05T11:00:52.863Z,8.67
2018-11-05T11:03:21.265Z,8.33
2018-11-05T11:05:49.722Z,8.50
2018-11-05T11:08:18.122Z,8.83
2018-11-05T11:10:46.832Z,8.33
2018-11-05T11:13:15.215Z,8.50
2018-11-05T11:15:43.552Z,7.77
2018-11-05T11:18:12.211Z,8.07
2018-11-05T11:20:40.505Z,8.13
2018-11-05T11:23:12.374Z,7.33
2018-11-05T11:29:09.780Z,8.07
2018-11-05T11:31:38.508Z,8.53
2018-11-05T11:34:07.002Z,8.97
2018-11-05T11:36:35.487Z,8.07
2018-11-05T11:39:04.800Z,7.77
2018-11-05T11:41:33.379Z,7.90
2018-11-05T11:44:08.084Z,8.30
2018-11-05T11:46:37.184Z,8.50
2018-11-05T11:49:06.031Z,7.93
2018-11-05T11:51:34.425Z,8.37
2018-11-05T11:54:02.877Z,7.73
2018-11-05T11:56:31.299Z,10.30
2018-11-05T11:58:59.741Z,7.77
2018-11-05T12:01:28.882Z,9.30
2018-11-05T12:03:57.253Z,8.27
2018-11-05T12:06:25.692Z,8.50
2018-11-05T12:08:54.099Z,8.10
2018-11-05T12:11:22.463Z,8.07
2018-11-05T12:13:50.873Z,7.20
2018-11-05T12:16:19.235Z,8.07
2018-11-05T12:18:47.612Z,7.63
2018-11-05T12:21:15.981Z,8.33
2018-11-05T12:23:44.442Z,7.20
2018-11-05T12:26:12.877Z,7.43
2018-11-05T12:28:41.227Z,7.57
2018-11-05T12:31:09.626Z,6.93
2018-11-05T12:33:38.035Z,8.37
2018-11-05T12:36:06.611Z,7.00
2018-11-05T12:38:37.971Z,8.27
2018-11-05T12:41:06.313Z,7.67
2018-11-05T12:43:34.670Z,7.13
2018-11-05T12:46:03.057Z,7.60
2018-11-05T12:48:31.473Z,7.00
2018-11-05T12:50:59.802Z,6.37
2018-11-05T12:53:28.157Z,7.00
2018-11-05T12:55:56.593Z,6.10
2018-11-05T12:58:24.982Z,6.03
2018-11-05T13:00:53.729Z,7.47
2018-11-05T13:03:22.013Z,6.37
2018-11-05T13:05:50.361Z,6.03
2018-11-05T13:08:19.012Z,5.87
2018-11-05T13:10:47.317Z,6.70
2018-11-05T13:13:15.669Z,6.73
2018-11-05T13:15:44.108Z,6.90
2018-11-05T13:18:12.503Z,6.00
2018-11-05T13:20:41.880Z,6.07
2018-11-05T13:23:10.268Z,5.30
2018-11-05T13:25:38.604Z,5.70
2018-11-05T13:28:07.059Z,5.60
2018-11-05T13:30:35.360Z,5.20
2018-11-05T13:33:03.777Z,6.00
2018-11-05T13:35:32.132Z,6.53
2018-11-05T13:38:01.084Z,5.63
2018-11-05T13:40:29.949Z,5.87
2018-11-05T13:42:58.374Z,6.20
2018-11-05T13:45:27.015Z,5.83
2018-11-05T13:47:55.935Z,5.47
2018-11-05T13:50:23.682Z,5.83
2018-11-05T13:52:51.850Z,5.20
2018-11-05T13:55:20.194Z,5.40
2018-11-05T13:57:49.033Z,5.00
2018-11-05T14:00:19.650Z,4.90
2018-11-05T14:02:48.129Z,4.50
2018-11-05T14:05:16.521Z,5.30
2018-11-05T14:07:44.964Z,5.13
2018-11-05T14:10:20.548Z,5.27
2018-11-05T14:12:49.118Z,4.57
2018-11-05T14:15:17.477Z,5.30
2018-11-05T14:17:46.053Z,4.87
2018-11-05T14:20:15.367Z,5.70
2018-11-05T14:22:43.974Z,5.10
2018-11-05T14:25:13.475Z,5.37
2018-11-05T14:27:42.857Z,5.23
2018-11-05T14:30:12.125Z,4.87
2018-11-05T14:32:41.540Z,4.80
2018-11-05T14:35:10.042Z,5.17
2018-11-05T14:37:38.411Z,4.90
2018-11-05T14:40:08.151Z,4.90
2018-11-05T14:42:36.919Z,5.20
2018-11-05T14:45:07.282Z,5.03
2018-11-05T14:47:35.582Z,4.60
2018-11-05T14:50:04.664Z,5.10
2018-11-05T14:52:33.105Z,5.03
2018-11-05T14:55:01.464Z,5.20
2018-11-05T14:57:30.914Z,5.37
2018-11-05T14:59:59.236Z,5.50
2018-11-05T15:02:32.800Z,5.57
2018-11-05T15:05:01.092Z,5.70
2018-11-05T15:07:29.529Z,5.77
2018-11-05T15:09:57.863Z,6.20
2018-11-05T15:12:26.272Z,6.53
2018-11-05T15:14:54.764Z,5.50
2018-11-05T15:17:24.832Z,6.20
2018-11-05T15:19:54.822Z,6.23
2018-11-05T15:22:22.817Z,6.80
2018-11-05T15:24:51.314Z,6.60
2018-11-05T15:27:19.574Z,5.60
2018-11-05T15:29:49.030Z,7.20
2018-11-05T15:32:17.461Z,5.97
2018-11-05T15:34:45.797Z,5.50
2018-11-05T15:37:14.238Z,5.80
2018-11-05T15:39:42.580Z,6.73
2018-11-05T15:42:12.282Z,6.43
2018-11-05T15:44:44.702Z,7.00
2018-11-05T15:47:13.128Z,8.00
2018-11-05T15:49:42.484Z,7.50
2018-11-05T15:52:11.065Z,10.17
2018-11-05T15:54:39.374Z,8.77
2018-11-05T15:57:08.158Z,10.97
2018-11-05T15:59:36.752Z,9.57
2018-11-05T16:02:09.825Z,7.03
2018-11-05T16:04:39.646Z,5.50
2018-11-05T16:07:08.474Z,6.27
2018-11-05T16:09:37.339Z,6.57
2018-11-05T16:12:05.661Z,7.37
2018-11-05T16:14:33.945Z,6.57
2018-11-05T16:17:02.975Z,6.03
2018-11-05T16:19:31.524Z,5.97
2018-11-05T16:22:00.029Z,8.00
2018-11-05T16:24:28.687Z,6.80
2018-11-05T16:26:57.740Z,6.87
2018-11-05T16:29:26.261Z,6.33
2018-11-05T16:31:54.595Z,7.90
2018-11-05T16:34:26.256Z,7.57
2018-11-05T16:36:54.623Z,7.37
2018-11-05T16:39:23.054Z,8.37
2018-11-05T16:41:51.543Z,8.17
2018-11-05T16:44:19.884Z,7.10
2018-11-05T16:46:48.301Z,6.33
2018-11-05T16:49:16.716Z,8.57
2018-11-05T16:51:45.088Z,10.07
2018-11-05T16:54:13.814Z,10.33
2018-11-05T16:56:42.433Z,10.10
2018-11-05T16:59:10.998Z,10.60
2018-11-05T17:01:40.776Z,9.87
2018-11-05T17:04:08.837Z,10.20
2018-11-05T17:06:37.374Z,9.47
2018-11-05T17:09:08.654Z,9.17
2018-11-05T17:11:37.063Z,8.97
2018-11-05T17:14:05.654Z,9.17
2018-11-05T17:16:34.057Z,8.93
2018-11-05T17:19:02.526Z,9.20
2018-11-05T17:21:30.911Z,10.70
2018-11-05T17:23:59.337Z,10.27
2018-11-05T17:26:27.992Z,10.83
2018-11-05T17:28:56.509Z,17.07
2018-11-05T17:31:25.001Z,12.03
2018-11-05T17:33:53.413Z,21.93
2018-11-05T17:36:21.827Z,16.97
2018-11-05T17:38:50.339Z,11.77
2018-11-05T17:41:18.701Z,12.90
2018-11-05T17:43:47.196Z,9.97
2018-11-05T17:46:15.614Z,9.68
2018-11-05T17:48:43.938Z,9.33
2018-11-05T17:51:12.403Z,11.27
2018-11-05T17:53:40.785Z,10.93
2018-11-05T17:56:09.185Z,11.80
2018-11-05T17:58:37.549Z,11.73
2018-11-05T18:01:05.936Z,13.20
2018-11-05T18:03:34.285Z,10.97
2018-11-05T18:06:02.766Z,15.40
2018-11-05T18:08:31.096Z,14.43
2018-11-05T18:11:00.079Z,16.40
2018-11-05T18:13:28.483Z,15.40
2018-11-05T18:15:56.902Z,15.93
2018-11-05T18:18:25.275Z,17.33
2018-11-05T18:20:53.631Z,18.93
2018-11-05T18:23:21.993Z,16.53
2018-11-05T18:25:50.453Z,16.37
2018-11-05T18:28:18.871Z,14.07
2018-11-05T18:30:47.263Z,12.90
2018-11-05T18:33:15.721Z,10.97
2018-11-05T18:35:44.187Z,11.77
2018-11-05T18:38:12.660Z,13.20
2018-11-05T18:40:40.997Z,13.43
2018-11-05T18:43:09.453Z,13.77
2018-11-05T18:45:37.973Z,13.97
2018-11-05T18:48:06.248Z,14.23
2018-11-05T18:50:34.580Z,15.47
2018-11-05T18:53:02.985Z,15.77
2018-11-05T18:55:31.327Z,16.33
2018-11-05T18:57:59.705Z,16.47
2018-11-05T19:00:28.484Z,15.33
2018-11-05T19:02:58.815Z,15.77
2018-11-05T19:05:28.370Z,17.43
2018-11-05T19:07:56.683Z,18.10
2018-11-05T19:10:25.314Z,19.20
2018-11-05T19:12:54.062Z,18.67
2018-11-05T19:15:22.409Z,16.43
2018-11-05T19:17:51.166Z,14.40
2018-11-05T19:20:19.801Z,13.00
2018-11-05T19:22:48.311Z,13.47
2018-11-05T19:25:19.529Z,12.57
2018-11-05T19:27:50.264Z,12.07
2018-11-05T19:30:20.883Z,14.20
2018-11-05T19:32:49.194Z,13.40
2018-11-05T19:35:18.614Z,14.40
2018-11-05T19:37:46.933Z,22.10
2018-11-05T19:40:15.986Z,18.90
2018-11-05T19:42:45.276Z,18.17
2018-11-05T19:45:15.621Z,16.63
2018-11-05T19:47:43.967Z,17.47
2018-11-05T19:50:14.581Z,19.30
2018-11-05T19:52:44.020Z,16.60
2018-11-05T19:55:13.510Z,16.67
2018-11-05T19:57:42.733Z,14.43
2018-11-05T20:00:15.689Z,14.67
2018-11-05T20:02:44.459Z,13.60
2018-11-05T20:05:13.252Z,13.73
2018-11-05T20:07:41.626Z,14.47
2018-11-05T20:10:10.745Z,14.53
2018-11-05T20:12:39.122Z,18.03
2018-11-05T20:15:08.477Z,19.57
2018-11-05T20:17:38.106Z,18.03
2018-11-05T20:20:08.139Z,17.00
2018-11-05T20:25:19.878Z,16.77
2018-11-05T20:27:48.305Z,15.73
2018-11-05T20:30:18.592Z,15.70
2018-11-05T20:32:48.458Z,14.00
2018-11-05T20:35:16.420Z,15.37
2018-11-05T20:37:44.896Z,14.53
2018-11-05T20:40:14.600Z,15.37
2018-11-05T20:42:44.150Z,14.50
2018-11-05T20:45:12.769Z,15.00
2018-11-05T20:47:41.522Z,13.60
2018-11-05T20:50:10.625Z,17.50
2018-11-05T20:52:39.410Z,14.57
2018-11-05T20:55:08.830Z,15.80
2018-11-05T20:57:38.510Z,17.40
2018-11-05T21:00:08.572Z,15.90
2018-11-05T21:02:36.991Z,15.63
2018-11-05T21:05:05.407Z,15.43
2018-11-05T21:07:33.793Z,14.67
2018-11-05T21:10:02.586Z,13.53
2018-11-05T21:12:30.976Z,13.50
2018-11-05T21:14:59.363Z,15.93
2018-11-05T21:17:34.371Z,13.87
2018-11-05T21:20:02.773Z,14.80
2018-11-05T21:22:31.248Z,13.50
2018-11-05T21:24:59.494Z,14.03
2018-11-05T21:27:27.946Z,14.00
2018-11-05T21:29:56.339Z,13.50
2018-11-05T21:32:24.771Z,13.63
2018-11-05T21:34:53.153Z,13.97
2018-11-05T21:37:21.449Z,13.07
2018-11-05T21:39:49.737Z,13.50
2018-11-05T21:42:17.988Z,13.23
2018-11-05T21:44:46.277Z,13.70
2018-11-05T21:47:14.724Z,13.17
2018-11-05T21:49:43.053Z,13.63
2018-11-05T21:52:11.469Z,15.20
2018-11-05T21:54:39.812Z,13.57
2018-11-05T21:57:08.168Z,13.47
2018-11-05T21:59:36.478Z,14.27
2018-11-05T22:02:04.899Z,15.23
2018-11-05T22:04:33.246Z,16.80
2018-11-05T22:07:01.606Z,13.67
2018-11-05T22:09:29.978Z,15.60
2018-11-05T22:11:58.345Z,15.13
2018-11-05T22:14:26.671Z,14.70
2018-11-05T22:16:55.013Z,13.40
2018-11-05T22:19:23.389Z,13.73
2018-11-05T22:21:51.774Z,13.43
2018-11-05T22:24:20.157Z,14.00
2018-11-05T22:26:48.537Z,14.80
2018-11-05T22:29:18.206Z,14.40
2018-11-05T22:31:46.519Z,13.97
2018-11-05T22:34:14.954Z,14.70
2018-11-05T22:36:43.298Z,14.70
2018-11-05T22:39:11.648Z,13.63
2018-11-05T22:41:39.928Z,14.10
2018-11-05T22:44:08.984Z,15.40
2018-11-05T22:46:37.519Z,15.57
2018-11-05T22:49:06.108Z,16.23
2018-11-05T22:51:34.568Z,15.03
2018-11-05T22:54:02.843Z,13.27
2018-11-05T22:56:31.264Z,13.47
2018-11-05T22:58:59.605Z,13.93
2018-11-05T23:01:33.254Z,13.17
2018-11-05T23:04:03.261Z,13.53
2018-11-05T23:06:32.195Z,12.80
2018-11-05T23:09:00.558Z,15.03
2018-11-05T23:11:28.900Z,13.57
2018-11-05T23:13:57.240Z,13.53
2018-11-05T23:16:25.520Z,13.80
2018-11-05T23:18:53.795Z,13.77
2018-11-05T23:21:22.073Z,12.63
2018-11-05T23:23:50.376Z,12.47
2018-11-05T23:26:18.886Z,12.43
2018-11-05T23:28:47.211Z,12.00
2018-11-05T23:31:15.649Z,11.80
2018-11-05T23:33:44.237Z,13.47
2018-11-05T23:36:13.661Z,12.97
2018-11-05T23:38:41.987Z,13.27
2018-11-05T23:41:10.593Z,12.23
2018-11-05T23:43:38.986Z,13.37
2018-11-05T23:46:07.513Z,14.23
2018-11-05T23:48:35.956Z,12.77
2018-11-05T23:51:04.759Z,14.03
2018-11-05T23:53:34.442Z,12.37
2018-11-05T23:56:02.881Z,11.73
2018-11-05T23:58:31.279Z,12.40
